sensor_id;sensor_type;location;lat;lon;timestamp;temperature;humidity
36280;DHT22;22317;47.936;12.742;2022-10-17T00:00:43;10.80;80.20
36280;DHT22;22317;47.936;12.742;2022-10-17T00:03:09;10.80;79.60
36280;DHT22;22317;47.936;12.742;2022-10-17T00:05:40;10.70;79.10
36280;DHT22;22317;47.936;12.742;2022-10-17T00:08:08;10.70;78.00
36280;DHT22;22317;47.936;12.742;2022-10-17T00:10:34;10.80;77.00
36280;DHT22;22317;47.936;12.742;2022-10-17T00:13:00;10.80;76.60
36280;DHT22;22317;47.936;12.742;2022-10-17T00:15:25;11.00;76.00
36280;DHT22;22317;47.936;12.742;2022-10-17T00:17:51;10.80;76.80
36280;DHT22;22317;47.936;12.742;2022-10-17T00:20:17;10.50;76.30
36280;DHT22;22317;47.936;12.742;2022-10-17T00:22:43;10.20;77.20
36280;DHT22;22317;47.936;12.742;2022-10-17T00:25:09;10.80;77.70
36280;DHT22;22317;47.936;12.742;2022-10-17T00:27:37;10.70;77.60
36280;DHT22;22317;47.936;12.742;2022-10-17T00:30:04;10.60;78.00
36280;DHT22;22317;47.936;12.742;2022-10-17T00:32:30;10.60;77.30
36280;DHT22;22317;47.936;12.742;2022-10-17T00:34:57;10.60;76.50
36280;DHT22;22317;47.936;12.742;2022-10-17T00:37:24;10.60;75.60
36280;DHT22;22317;47.936;12.742;2022-10-17T00:39:49;10.30;77.40
36280;DHT22;22317;47.936;12.742;2022-10-17T00:42:16;10.60;68.30
36280;DHT22;22317;47.936;12.742;2022-10-17T00:47:14;10.20;74.20
36280;DHT22;22317;47.936;12.742;2022-10-17T00:52:10;10.20;61.90
36280;DHT22;22317;47.936;12.742;2022-10-17T00:54:41;10.10;62.60
36280;DHT22;22317;47.936;12.742;2022-10-17T00:57:08;10.40;64.70
36280;DHT22;22317;47.936;12.742;2022-10-17T00:59:36;9.90;61.20
36280;DHT22;22317;47.936;12.742;2022-10-17T01:02:05;10.00;60.20
36280;DHT22;22317;47.936;12.742;2022-10-17T01:04:32;9.90;60.80
36280;DHT22;22317;47.936;12.742;2022-10-17T01:06:57;9.80;60.70
36280;DHT22;22317;47.936;12.742;2022-10-17T01:09:24;9.80;61.60
36280;DHT22;22317;47.936;12.742;2022-10-17T01:12:10;9.60;59.80
36280;DHT22;22317;47.936;12.742;2022-10-17T01:17:13;9.70;60.90
36280;DHT22;22317;47.936;12.742;2022-10-17T01:22:39;9.60;60.80
36280;DHT22;22317;47.936;12.742;2022-10-17T01:33:10;9.60;61.90
36280;DHT22;22317;47.936;12.742;2022-10-17T01:35:43;9.60;62.60
36280;DHT22;22317;47.936;12.742;2022-10-17T01:38:20;9.70;65.60
36280;DHT22;22317;47.936;12.742;2022-10-17T01:41:05;9.60;65.30
36280;DHT22;22317;47.936;12.742;2022-10-17T01:43:43;9.80;62.80
36280;DHT22;22317;47.936;12.742;2022-10-17T01:46:49;9.60;66.00
36280;DHT22;22317;47.936;12.742;2022-10-17T01:49:19;9.90;66.60
36280;DHT22;22317;47.936;12.742;2022-10-17T01:51:54;9.70;65.70
36280;DHT22;22317;47.936;12.742;2022-10-17T01:54:24;9.80;66.10
36280;DHT22;22317;47.936;12.742;2022-10-17T01:56:58;9.70;66.20
36280;DHT22;22317;47.936;12.742;2022-10-17T01:59:40;9.50;65.80
36280;DHT22;22317;47.936;12.742;2022-10-17T02:02:08;9.50;65.50
36280;DHT22;22317;47.936;12.742;2022-10-17T02:04:35;9.70;66.00
36280;DHT22;22317;47.936;12.742;2022-10-17T02:07:11;9.60;65.90
36280;DHT22;22317;47.936;12.742;2022-10-17T02:09:37;9.30;75.20
36280;DHT22;22317;47.936;12.742;2022-10-17T02:20:24;9.50;63.00
36280;DHT22;22317;47.936;12.742;2022-10-17T02:23:13;9.60;63.70
36280;DHT22;22317;47.936;12.742;2022-10-17T02:28:22;9.20;66.00
36280;DHT22;22317;47.936;12.742;2022-10-17T02:31:24;9.50;68.00
36280;DHT22;22317;47.936;12.742;2022-10-17T02:33:58;9.40;67.90
36280;DHT22;22317;47.936;12.742;2022-10-17T02:36:29;9.50;64.60
36280;DHT22;22317;47.936;12.742;2022-10-17T02:38:57;9.50;68.70
36280;DHT22;22317;47.936;12.742;2022-10-17T02:41:26;9.30;68.60
36280;DHT22;22317;47.936;12.742;2022-10-17T02:43:52;9.40;69.00
36280;DHT22;22317;47.936;12.742;2022-10-17T02:46:20;9.60;69.40
36280;DHT22;22317;47.936;12.742;2022-10-17T02:48:55;9.50;69.90
36280;DHT22;22317;47.936;12.742;2022-10-17T02:51:35;9.60;70.80
36280;DHT22;22317;47.936;12.742;2022-10-17T02:57:01;9.40;68.60
36280;DHT22;22317;47.936;12.742;2022-10-17T02:59:31;9.40;72.50
36280;DHT22;22317;47.936;12.742;2022-10-17T04:31:05;8.30;65.20
36280;DHT22;22317;47.936;12.742;2022-10-17T04:33:37;8.30;63.30
36280;DHT22;22317;47.936;12.742;2022-10-17T04:36:10;8.00;64.70
36280;DHT22;22317;47.936;12.742;2022-10-17T04:38:37;8.40;65.20
36280;DHT22;22317;47.936;12.742;2022-10-17T04:41:07;8.50;64.50
36280;DHT22;22317;47.936;12.742;2022-10-17T04:43:35;8.40;66.00
36280;DHT22;22317;47.936;12.742;2022-10-17T04:46:10;8.40;68.90
36280;DHT22;22317;47.936;12.742;2022-10-17T04:48:38;8.50;67.30
36280;DHT22;22317;47.936;12.742;2022-10-17T04:51:10;8.60;71.60
36280;DHT22;22317;47.936;12.742;2022-10-17T04:53:45;8.50;68.80
36280;DHT22;22317;47.936;12.742;2022-10-17T04:56:17;8.50;71.00
36280;DHT22;22317;47.936;12.742;2022-10-17T04:58:44;8.50;72.00
36280;DHT22;22317;47.936;12.742;2022-10-17T05:01:13;8.50;71.40
36280;DHT22;22317;47.936;12.742;2022-10-17T05:03:41;8.40;71.90
36280;DHT22;22317;47.936;12.742;2022-10-17T05:06:12;8.40;71.50
36280;DHT22;22317;47.936;12.742;2022-10-17T05:08:38;8.50;71.40
36280;DHT22;22317;47.936;12.742;2022-10-17T05:11:17;8.00;71.90
36280;DHT22;22317;47.936;12.742;2022-10-17T05:13:43;8.50;71.50
36280;DHT22;22317;47.936;12.742;2022-10-17T05:16:09;8.30;74.10
36280;DHT22;22317;47.936;12.742;2022-10-17T05:18:35;8.40;73.90
36280;DHT22;22317;47.936;12.742;2022-10-17T05:21:04;7.50;74.60
36280;DHT22;22317;47.936;12.742;2022-10-17T05:23:31;8.20;74.70
36280;DHT22;22317;47.936;12.742;2022-10-17T05:25:58;8.40;75.70
36280;DHT22;22317;47.936;12.742;2022-10-17T05:28:25;8.50;75.30
36280;DHT22;22317;47.936;12.742;2022-10-17T05:30:52;8.40;75.70
36280;DHT22;22317;47.936;12.742;2022-10-17T05:33:18;8.10;75.20
36280;DHT22;22317;47.936;12.742;2022-10-17T05:35:44;8.80;75.80
36280;DHT22;22317;47.936;12.742;2022-10-17T05:38:10;8.20;74.80
36280;DHT22;22317;47.936;12.742;2022-10-17T05:40:38;8.60;76.50
36280;DHT22;22317;47.936;12.742;2022-10-17T05:43:04;8.10;77.20
36280;DHT22;22317;47.936;12.742;2022-10-17T05:45:30;8.50;76.30
36280;DHT22;22317;47.936;12.742;2022-10-17T05:47:56;8.50;74.50
36280;DHT22;22317;47.936;12.742;2022-10-17T05:50:22;8.40;75.10
36280;DHT22;22317;47.936;12.742;2022-10-17T05:53:01;8.40;76.00
36280;DHT22;22317;47.936;12.742;2022-10-17T05:55:27;8.40;75.70
36280;DHT22;22317;47.936;12.742;2022-10-17T05:57:53;8.40;76.80
36280;DHT22;22317;47.936;12.742;2022-10-17T06:00:20;8.20;77.00
36280;DHT22;22317;47.936;12.742;2022-10-17T06:02:54;8.40;76.50
36280;DHT22;22317;47.936;12.742;2022-10-17T06:05:21;8.20;76.90
36280;DHT22;22317;47.936;12.742;2022-10-17T06:07:47;8.30;78.00
36280;DHT22;22317;47.936;12.742;2022-10-17T06:10:15;8.60;79.60
36280;DHT22;22317;47.936;12.742;2022-10-17T06:12:44;8.60;77.60
36280;DHT22;22317;47.936;12.742;2022-10-17T06:15:11;8.90;77.10
36280;DHT22;22317;47.936;12.742;2022-10-17T06:17:39;8.70;79.90
36280;DHT22;22317;47.936;12.742;2022-10-17T06:20:05;8.50;75.10
36280;DHT22;22317;47.936;12.742;2022-10-17T06:22:31;8.90;76.30
36280;DHT22;22317;47.936;12.742;2022-10-17T06:24:59;8.80;76.30
36280;DHT22;22317;47.936;12.742;2022-10-17T06:27:25;9.00;75.20
36280;DHT22;22317;47.936;12.742;2022-10-17T06:29:51;8.70;81.50
36280;DHT22;22317;47.936;12.742;2022-10-17T06:32:16;9.20;76.60
36280;DHT22;22317;47.936;12.742;2022-10-17T06:37:11;9.10;74.70
36280;DHT22;22317;47.936;12.742;2022-10-17T06:39:38;9.30;77.60
36280;DHT22;22317;47.936;12.742;2022-10-17T06:42:09;9.40;78.60
36280;DHT22;22317;47.936;12.742;2022-10-17T06:45:05;9.80;77.10
36280;DHT22;22317;47.936;12.742;2022-10-17T06:47:49;9.90;78.70
36280;DHT22;22317;47.936;12.742;2022-10-17T06:50:47;10.00;75.00
36280;DHT22;22317;47.936;12.742;2022-10-17T06:53:19;10.30;77.40
36280;DHT22;22317;47.936;12.742;2022-10-17T06:56:24;10.30;78.10
36280;DHT22;22317;47.936;12.742;2022-10-17T06:59:09;10.50;73.40
36280;DHT22;22317;47.936;12.742;2022-10-17T07:01:36;10.50;78.40
36280;DHT22;22317;47.936;12.742;2022-10-17T07:04:03;10.80;77.70
36280;DHT22;22317;47.936;12.742;2022-10-17T07:06:30;10.80;76.20
36280;DHT22;22317;47.936;12.742;2022-10-17T07:09:00;10.90;76.70
36280;DHT22;22317;47.936;12.742;2022-10-17T07:11:27;11.00;74.30
36280;DHT22;22317;47.936;12.742;2022-10-17T07:13:53;11.60;78.10
36280;DHT22;22317;47.936;12.742;2022-10-17T07:16:20;10.90;74.00
36280;DHT22;22317;47.936;12.742;2022-10-17T07:18:50;11.40;77.10
36280;DHT22;22317;47.936;12.742;2022-10-17T07:23:43;11.30;78.10
36280;DHT22;22317;47.936;12.742;2022-10-17T07:26:11;11.80;74.50
36280;DHT22;22317;47.936;12.742;2022-10-17T07:28:42;11.90;77.50
36280;DHT22;22317;47.936;12.742;2022-10-17T07:31:26;12.00;75.40
36280;DHT22;22317;47.936;12.742;2022-10-17T07:33:52;12.00;74.60
36280;DHT22;22317;47.936;12.742;2022-10-17T07:36:19;12.20;74.30
36280;DHT22;22317;47.936;12.742;2022-10-17T07:38:45;12.40;76.50
36280;DHT22;22317;47.936;12.742;2022-10-17T07:41:12;12.30;76.20
36280;DHT22;22317;47.936;12.742;2022-10-17T07:46:07;12.50;73.60
36280;DHT22;22317;47.936;12.742;2022-10-17T07:48:33;12.50;73.90
36280;DHT22;22317;47.936;12.742;2022-10-17T07:51:02;12.90;71.60
36280;DHT22;22317;47.936;12.742;2022-10-17T07:53:28;13.10;71.80
36280;DHT22;22317;47.936;12.742;2022-10-17T07:55:54;13.30;71.30
36280;DHT22;22317;47.936;12.742;2022-10-17T07:58:19;13.20;70.80
36280;DHT22;22317;47.936;12.742;2022-10-17T08:00:45;13.60;69.50
36280;DHT22;22317;47.936;12.742;2022-10-17T08:03:13;13.80;67.40
36280;DHT22;22317;47.936;12.742;2022-10-17T08:05:39;13.90;66.80
36280;DHT22;22317;47.936;12.742;2022-10-17T08:08:05;14.00;65.10
36280;DHT22;22317;47.936;12.742;2022-10-17T08:10:30;14.10;64.70
36280;DHT22;22317;47.936;12.742;2022-10-17T08:12:57;14.20;64.40
36280;DHT22;22317;47.936;12.742;2022-10-17T08:15:23;14.40;64.20
36280;DHT22;22317;47.936;12.742;2022-10-17T08:17:50;14.60;63.00
36280;DHT22;22317;47.936;12.742;2022-10-17T08:20:15;14.50;62.20
36280;DHT22;22317;47.936;12.742;2022-10-17T08:22:41;14.50;60.80
36280;DHT22;22317;47.936;12.742;2022-10-17T08:25:07;14.80;61.10
36280;DHT22;22317;47.936;12.742;2022-10-17T08:27:34;15.10;60.10
36280;DHT22;22317;47.936;12.742;2022-10-17T08:29:59;15.10;68.60
36280;DHT22;22317;47.936;12.742;2022-10-17T08:32:26;14.90;59.80
36280;DHT22;22317;47.936;12.742;2022-10-17T08:34:53;15.10;58.70
36280;DHT22;22317;47.936;12.742;2022-10-17T08:37:20;15.10;58.40
36280;DHT22;22317;47.936;12.742;2022-10-17T08:39:47;15.10;66.40
36280;DHT22;22317;47.936;12.742;2022-10-17T08:42:47;15.30;58.60
36280;DHT22;22317;47.936;12.742;2022-10-17T08:45:20;15.50;57.10
36280;DHT22;22317;47.936;12.742;2022-10-17T08:47:56;15.50;58.90
36280;DHT22;22317;47.936;12.742;2022-10-17T08:50:34;15.70;58.40
36280;DHT22;22317;47.936;12.742;2022-10-17T08:53:42;16.00;57.10
36280;DHT22;22317;47.936;12.742;2022-10-17T08:56:34;16.10;57.00
36280;DHT22;22317;47.936;12.742;2022-10-17T08:59:05;16.10;57.10
36280;DHT22;22317;47.936;12.742;2022-10-17T09:07:26;17.00;64.30
36280;DHT22;22317;47.936;12.742;2022-10-17T09:09:58;17.30;71.20
36280;DHT22;22317;47.936;12.742;2022-10-17T09:15:23;17.60;67.10
36280;DHT22;22317;47.936;12.742;2022-10-17T09:18:12;17.80;64.20
36280;DHT22;22317;47.936;12.742;2022-10-17T09:20:50;18.00;62.90
36280;DHT22;22317;47.936;12.742;2022-10-17T09:23:22;18.40;63.00
36280;DHT22;22317;47.936;12.742;2022-10-17T09:25:52;18.20;64.90
36280;DHT22;22317;47.936;12.742;2022-10-17T09:28:31;18.50;63.80
36280;DHT22;22317;47.936;12.742;2022-10-17T09:33:35;18.50;62.50
36280;DHT22;22317;47.936;12.742;2022-10-17T09:36:08;18.90;63.00
36280;DHT22;22317;47.936;12.742;2022-10-17T09:38:44;18.80;64.70
36280;DHT22;22317;47.936;12.742;2022-10-17T09:41:20;19.00;65.30
36280;DHT22;22317;47.936;12.742;2022-10-17T09:43:47;19.30;68.60
36280;DHT22;22317;47.936;12.742;2022-10-17T09:48:49;19.40;52.40
36280;DHT22;22317;47.936;12.742;2022-10-17T09:51:17;19.40;49.80
36280;DHT22;22317;47.936;12.742;2022-10-17T09:53:50;19.50;49.70
36280;DHT22;22317;47.936;12.742;2022-10-17T09:56:18;19.70;50.50
36280;DHT22;22317;47.936;12.742;2022-10-17T09:58:48;20.00;63.40
36280;DHT22;22317;47.936;12.742;2022-10-17T10:01:26;20.00;49.40
36280;DHT22;22317;47.936;12.742;2022-10-17T10:06:34;20.30;49.60
36280;DHT22;22317;47.936;12.742;2022-10-17T10:09:00;20.60;48.60
36280;DHT22;22317;47.936;12.742;2022-10-17T10:11:49;20.70;47.90
36280;DHT22;22317;47.936;12.742;2022-10-17T10:14:21;21.00;46.90
36280;DHT22;22317;47.936;12.742;2022-10-17T10:16:48;21.20;46.90
36280;DHT22;22317;47.936;12.742;2022-10-17T10:19:27;21.40;46.60
36280;DHT22;22317;47.936;12.742;2022-10-17T10:21:59;21.60;46.10
36280;DHT22;22317;47.936;12.742;2022-10-17T10:26:54;21.80;47.20
36280;DHT22;22317;47.936;12.742;2022-10-17T10:29:22;22.30;50.20
36280;DHT22;22317;47.936;12.742;2022-10-17T10:31:51;22.30;45.10
36280;DHT22;22317;47.936;12.742;2022-10-17T10:34:21;22.50;44.80
36280;DHT22;22317;47.936;12.742;2022-10-17T10:36:52;22.80;53.30
36280;DHT22;22317;47.936;12.742;2022-10-17T10:41:54;23.00;43.20
36280;DHT22;22317;47.936;12.742;2022-10-17T10:44:23;23.20;44.10
36280;DHT22;22317;47.936;12.742;2022-10-17T10:47:26;23.30;43.90
36280;DHT22;22317;47.936;12.742;2022-10-17T10:50:05;23.50;42.60
36280;DHT22;22317;47.936;12.742;2022-10-17T10:52:42;23.70;42.80
36280;DHT22;22317;47.936;12.742;2022-10-17T10:55:25;23.90;42.30
36280;DHT22;22317;47.936;12.742;2022-10-17T10:57:56;24.10;42.10
36280;DHT22;22317;47.936;12.742;2022-10-17T11:00:25;24.40;41.80
36280;DHT22;22317;47.936;12.742;2022-10-17T11:05:48;24.60;52.50
36280;DHT22;22317;47.936;12.742;2022-10-17T11:11:05;25.10;65.10
36280;DHT22;22317;47.936;12.742;2022-10-17T11:21:46;25.80;76.30
36280;DHT22;22317;47.936;12.742;2022-10-17T11:24:26;25.90;38.30
36280;DHT22;22317;47.936;12.742;2022-10-17T11:26:59;26.00;38.60
36280;DHT22;22317;47.936;12.742;2022-10-17T11:29:34;26.30;38.30
36280;DHT22;22317;47.936;12.742;2022-10-17T11:32:20;26.60;37.30
36280;DHT22;22317;47.936;12.742;2022-10-17T11:34:51;26.80;37.70
36280;DHT22;22317;47.936;12.742;2022-10-17T11:37:34;27.10;37.30
36280;DHT22;22317;47.936;12.742;2022-10-17T11:40:22;27.50;37.10
36280;DHT22;22317;47.936;12.742;2022-10-17T11:43:00;27.50;36.20
36280;DHT22;22317;47.936;12.742;2022-10-17T11:45:31;28.00;36.50
36280;DHT22;22317;47.936;12.742;2022-10-17T11:48:05;28.50;36.10
36280;DHT22;22317;47.936;12.742;2022-10-17T11:50:34;29.80;35.50
36280;DHT22;22317;47.936;12.742;2022-10-17T11:53:16;30.50;34.10
36280;DHT22;22317;47.936;12.742;2022-10-17T11:55:43;31.40;32.70
36280;DHT22;22317;47.936;12.742;2022-10-17T12:01:26;33.00;31.60
36280;DHT22;22317;47.936;12.742;2022-10-17T12:11:58;35.80;27.00
36280;DHT22;22317;47.936;12.742;2022-10-17T12:14:43;36.40;26.80
36280;DHT22;22317;47.936;12.742;2022-10-17T12:22:52;38.10;25.30
36280;DHT22;22317;47.936;12.742;2022-10-17T12:25:26;38.60;24.70
36280;DHT22;22317;47.936;12.742;2022-10-17T12:28:10;39.10;24.30
36280;DHT22;22317;47.936;12.742;2022-10-17T12:30:50;39.20;24.40
36280;DHT22;22317;47.936;12.742;2022-10-17T12:33:24;39.70;24.00
36280;DHT22;22317;47.936;12.742;2022-10-17T12:38:37;40.80;23.50
36280;DHT22;22317;47.936;12.742;2022-10-17T12:41:03;41.20;23.40
36280;DHT22;22317;47.936;12.742;2022-10-17T12:45:57;42.10;22.50
36280;DHT22;22317;47.936;12.742;2022-10-17T12:51:08;43.20;20.90
36280;DHT22;22317;47.936;12.742;2022-10-17T12:54:28;43.30;21.10
36280;DHT22;22317;47.936;12.742;2022-10-17T12:56:47;43.60;20.50
36280;DHT22;22317;47.936;12.742;2022-10-17T12:59:19;44.10;20.60
36280;DHT22;22317;47.936;12.742;2022-10-17T13:01:47;44.40;20.50
36280;DHT22;22317;47.936;12.742;2022-10-17T13:04:14;45.10;19.70
36280;DHT22;22317;47.936;12.742;2022-10-17T13:06:50;45.10;20.00
36280;DHT22;22317;47.936;12.742;2022-10-17T13:09:34;45.40;19.50
36280;DHT22;22317;47.936;12.742;2022-10-17T13:12:04;45.70;18.90
36280;DHT22;22317;47.936;12.742;2022-10-17T13:14:32;45.70;18.90
36280;DHT22;22317;47.936;12.742;2022-10-17T13:17:00;45.90;18.80
36280;DHT22;22317;47.936;12.742;2022-10-17T13:19:41;46.00;18.80
36280;DHT22;22317;47.936;12.742;2022-10-17T13:22:21;46.30;18.40
36280;DHT22;22317;47.936;12.742;2022-10-17T13:24:49;46.70;18.30
36280;DHT22;22317;47.936;12.742;2022-10-17T13:27:33;47.00;18.10
36280;DHT22;22317;47.936;12.742;2022-10-17T13:30:01;47.70;18.50
36280;DHT22;22317;47.936;12.742;2022-10-17T13:32:36;47.70;17.50
36280;DHT22;22317;47.936;12.742;2022-10-17T13:35:12;47.80;16.90
36280;DHT22;22317;47.936;12.742;2022-10-17T13:37:40;47.90;16.90
36280;DHT22;22317;47.936;12.742;2022-10-17T13:40:13;48.00;17.10
36280;DHT22;22317;47.936;12.742;2022-10-17T13:42:39;48.10;17.10
36280;DHT22;22317;47.936;12.742;2022-10-17T13:45:20;48.40;17.10
36280;DHT22;22317;47.936;12.742;2022-10-17T13:47:47;48.70;16.70
36280;DHT22;22317;47.936;12.742;2022-10-17T13:50:20;49.10;16.60
36280;DHT22;22317;47.936;12.742;2022-10-17T13:52:47;49.40;16.10
36280;DHT22;22317;47.936;12.742;2022-10-17T13:55:16;49.60;16.10
36280;DHT22;22317;47.936;12.742;2022-10-17T13:57:44;49.80;16.10
36280;DHT22;22317;47.936;12.742;2022-10-17T14:00:21;50.10;16.20
36280;DHT22;22317;47.936;12.742;2022-10-17T14:02:47;50.30;15.90
36280;DHT22;22317;47.936;12.742;2022-10-17T14:10:26;50.90;16.00
36280;DHT22;22317;47.936;12.742;2022-10-17T14:12:54;51.00;15.40
36280;DHT22;22317;47.936;12.742;2022-10-17T14:15:25;51.00;15.50
36280;DHT22;22317;47.936;12.742;2022-10-17T14:18:00;51.00;15.30
36280;DHT22;22317;47.936;12.742;2022-10-17T14:20:27;51.00;15.10
36280;DHT22;22317;47.936;12.742;2022-10-17T14:22:55;51.00;15.20
36280;DHT22;22317;47.936;12.742;2022-10-17T14:25:34;51.10;15.20
36280;DHT22;22317;47.936;12.742;2022-10-17T14:30:38;51.20;15.00
36280;DHT22;22317;47.936;12.742;2022-10-17T14:33:22;51.30;15.00
36280;DHT22;22317;47.936;12.742;2022-10-17T14:35:52;51.40;14.70
36280;DHT22;22317;47.936;12.742;2022-10-17T14:38:19;51.50;14.70
36280;DHT22;22317;47.936;12.742;2022-10-17T14:40:50;51.30;14.70
36280;DHT22;22317;47.936;12.742;2022-10-17T14:43:20;51.20;14.50
36280;DHT22;22317;47.936;12.742;2022-10-17T14:45:47;51.10;14.40
36280;DHT22;22317;47.936;12.742;2022-10-17T14:48:19;50.90;14.60
36280;DHT22;22317;47.936;12.742;2022-10-17T14:51:18;50.90;14.50
36280;DHT22;22317;47.936;12.742;2022-10-17T14:56:49;50.50;14.50
36280;DHT22;22317;47.936;12.742;2022-10-17T14:59:15;50.40;14.60
36280;DHT22;22317;47.936;12.742;2022-10-17T15:01:42;50.20;14.70
36280;DHT22;22317;47.936;12.742;2022-10-17T15:04:08;50.00;14.70
36280;DHT22;22317;47.936;12.742;2022-10-17T15:06:35;49.90;14.70
36280;DHT22;22317;47.936;12.742;2022-10-17T15:09:01;49.70;14.70
36280;DHT22;22317;47.936;12.742;2022-10-17T15:11:27;49.50;14.80
36280;DHT22;22317;47.936;12.742;2022-10-17T15:13:53;49.30;14.80
36280;DHT22;22317;47.936;12.742;2022-10-17T15:16:22;48.80;15.30
36280;DHT22;22317;47.936;12.742;2022-10-17T15:18:48;48.30;14.90
36280;DHT22;22317;47.936;12.742;2022-10-17T15:21:17;47.90;14.90
36280;DHT22;22317;47.936;12.742;2022-10-17T15:23:43;47.70;14.90
36280;DHT22;22317;47.936;12.742;2022-10-17T15:28:45;47.10;15.50
36280;DHT22;22317;47.936;12.742;2022-10-17T15:31:14;45.00;15.00
36280;DHT22;22317;47.936;12.742;2022-10-17T15:36:26;41.80;15.80
36280;DHT22;22317;47.936;12.742;2022-10-17T15:41:21;38.60;17.20
36280;DHT22;22317;47.936;12.742;2022-10-17T15:43:47;37.30;17.90
36280;DHT22;22317;47.936;12.742;2022-10-17T15:46:17;36.10;18.70
36280;DHT22;22317;47.936;12.742;2022-10-17T15:48:43;34.90;19.40
36280;DHT22;22317;47.936;12.742;2022-10-17T15:58:35;30.90;22.20
36280;DHT22;22317;47.936;12.742;2022-10-17T16:01:03;30.10;23.10
36280;DHT22;22317;47.936;12.742;2022-10-17T16:13:21;26.60;26.50
36280;DHT22;22317;47.936;12.742;2022-10-17T16:15:47;25.90;27.10
36280;DHT22;22317;47.936;12.742;2022-10-17T16:18:13;25.30;27.70
36280;DHT22;22317;47.936;12.742;2022-10-17T16:20:39;24.80;28.30
36280;DHT22;22317;47.936;12.742;2022-10-17T16:23:05;24.20;28.90
36280;DHT22;22317;47.936;12.742;2022-10-17T16:25:33;23.70;29.50
36280;DHT22;22317;47.936;12.742;2022-10-17T16:27:59;23.30;30.10
36280;DHT22;22317;47.936;12.742;2022-10-17T16:30:27;22.80;30.80
36280;DHT22;22317;47.936;12.742;2022-10-17T16:32:54;22.30;31.50
36280;DHT22;22317;47.936;12.742;2022-10-17T16:35:23;21.90;32.20
36280;DHT22;22317;47.936;12.742;2022-10-17T16:40:16;21.10;33.70
36280;DHT22;22317;47.936;12.742;2022-10-17T16:42:42;20.80;34.30
36280;DHT22;22317;47.936;12.742;2022-10-17T16:50:06;19.90;36.00
36280;DHT22;22317;47.936;12.742;2022-10-17T17:07:09;17.90;39.60
36280;DHT22;22317;47.936;12.742;2022-10-17T17:09:34;17.80;40.20
36280;DHT22;22317;47.936;12.742;2022-10-17T17:21:45;16.80;42.40
36280;DHT22;22317;47.936;12.742;2022-10-17T17:26:50;16.60;43.00
36280;DHT22;22317;47.936;12.742;2022-10-17T17:39:04;16.00;44.30
36280;DHT22;22317;47.936;12.742;2022-10-17T17:43:56;15.90;44.90
36280;DHT22;22317;47.936;12.742;2022-10-17T17:46:23;15.70;45.20
36280;DHT22;22317;47.936;12.742;2022-10-17T17:48:51;15.70;46.10
36280;DHT22;22317;47.936;12.742;2022-10-17T17:51:19;15.60;46.50
36280;DHT22;22317;47.936;12.742;2022-10-17T17:53:46;15.50;46.80
36280;DHT22;22317;47.936;12.742;2022-10-17T17:56:13;15.80;54.80
36280;DHT22;22317;47.936;12.742;2022-10-17T17:58:40;15.40;47.10
36280;DHT22;22317;47.936;12.742;2022-10-17T18:01:21;15.10;47.10
36280;DHT22;22317;47.936;12.742;2022-10-17T18:03:49;15.10;48.00
36280;DHT22;22317;47.936;12.742;2022-10-17T18:06:16;15.00;47.90
36280;DHT22;22317;47.936;12.742;2022-10-17T18:08:47;15.20;56.60
36280;DHT22;22317;47.936;12.742;2022-10-17T18:11:13;15.10;53.20
36280;DHT22;22317;47.936;12.742;2022-10-17T18:13:38;15.00;55.20
36280;DHT22;22317;47.936;12.742;2022-10-17T18:16:05;12.80;48.70
36280;DHT22;22317;47.936;12.742;2022-10-17T18:18:39;14.70;53.50
36280;DHT22;22317;47.936;12.742;2022-10-17T18:21:05;14.40;52.80
36280;DHT22;22317;47.936;12.742;2022-10-17T18:23:31;14.40;49.60
36280;DHT22;22317;47.936;12.742;2022-10-17T18:26:00;14.40;53.80
36280;DHT22;22317;47.936;12.742;2022-10-17T18:28:26;14.20;50.60
36280;DHT22;22317;47.936;12.742;2022-10-17T18:30:52;14.10;50.00
36280;DHT22;22317;47.936;12.742;2022-10-17T18:33:18;14.10;50.60
36280;DHT22;22317;47.936;12.742;2022-10-17T18:35:44;14.10;50.70
36280;DHT22;22317;47.936;12.742;2022-10-17T18:38:09;14.10;50.70
36280;DHT22;22317;47.936;12.742;2022-10-17T18:40:35;13.90;50.30
36280;DHT22;22317;47.936;12.742;2022-10-17T18:43:01;13.90;51.10
36280;DHT22;22317;47.936;12.742;2022-10-17T18:45:27;13.90;51.70
36280;DHT22;22317;47.936;12.742;2022-10-17T18:47:52;13.80;51.40
36280;DHT22;22317;47.936;12.742;2022-10-17T18:50:20;13.70;51.10
36280;DHT22;22317;47.936;12.742;2022-10-17T18:52:46;13.60;51.60
36280;DHT22;22317;47.936;12.742;2022-10-17T18:55:13;13.60;51.70
36280;DHT22;22317;47.936;12.742;2022-10-17T18:57:40;13.50;51.80
36280;DHT22;22317;47.936;12.742;2022-10-17T19:00:06;13.40;51.30
36280;DHT22;22317;47.936;12.742;2022-10-17T19:02:32;13.30;52.00
36280;DHT22;22317;47.936;12.742;2022-10-17T19:04:58;13.30;53.30
36280;DHT22;22317;47.936;12.742;2022-10-17T19:07:24;13.20;52.90
36280;DHT22;22317;47.936;12.742;2022-10-17T19:09:49;13.20;62.60
36280;DHT22;22317;47.936;12.742;2022-10-17T19:12:15;13.10;53.70
36280;DHT22;22317;47.936;12.742;2022-10-17T19:17:07;13.10;52.00
36280;DHT22;22317;47.936;12.742;2022-10-17T19:19:33;16.10;54.10
36280;DHT22;22317;47.936;12.742;2022-10-17T19:21:59;13.00;52.50
36280;DHT22;22317;47.936;12.742;2022-10-17T19:24:26;13.00;52.90
36280;DHT22;22317;47.936;12.742;2022-10-17T19:26:54;13.00;53.00
36280;DHT22;22317;47.936;12.742;2022-10-17T19:31:49;12.80;78.20
36280;DHT22;22317;47.936;12.742;2022-10-17T19:34:15;12.70;79.70
36280;DHT22;22317;47.936;12.742;2022-10-17T19:36:41;13.00;80.50
36280;DHT22;22317;47.936;12.742;2022-10-17T19:39:15;13.30;80.20
36280;DHT22;22317;47.936;12.742;2022-10-17T19:41:43;13.00;80.90
36280;DHT22;22317;47.936;12.742;2022-10-17T19:44:09;13.00;81.50
36280;DHT22;22317;47.936;12.742;2022-10-17T19:49:03;12.70;80.00
36280;DHT22;22317;47.936;12.742;2022-10-17T20:33:18;11.80;93.20
36280;DHT22;22317;47.936;12.742;2022-10-17T21:14:47;11.30;93.90
36280;DHT22;22317;47.936;12.742;2022-10-17T21:17:13;11.50;65.50
36280;DHT22;22317;47.936;12.742;2022-10-17T21:19:38;11.40;64.10
36280;DHT22;22317;47.936;12.742;2022-10-17T21:22:07;11.50;67.20
36280;DHT22;22317;47.936;12.742;2022-10-17T21:24:33;11.30;71.30
36280;DHT22;22317;47.936;12.742;2022-10-17T21:26:59;11.40;68.90
36280;DHT22;22317;47.936;12.742;2022-10-17T21:29:25;11.40;69.40
36280;DHT22;22317;47.936;12.742;2022-10-17T21:31:50;10.80;68.70
36280;DHT22;22317;47.936;12.742;2022-10-17T21:34:19;11.30;70.80
36280;DHT22;22317;47.936;12.742;2022-10-17T21:36:46;11.40;74.50
36280;DHT22;22317;47.936;12.742;2022-10-17T21:39:13;11.30;69.50